Time;durP1;ratioP1;P1;durP2;ratioP2;P2;SDS_P1;SDS_P2;PMS_P1;PMS_P2;Temp;Humidity;BMP_temperature;BMP_pressure;BME280_temperature;BME280_humidity;BME280_pressure;Samples;Min_cycle;Max_cycle;Signal;HPM_P1;HPM_P2
2022/07/12 00:00:23;;;;;;;3.30;1.30;;;16.20;99.90;;;;;;4204889;28;20329;-74
2022/07/12 00:02:25;;;;;;;1.20;1.10;;;16.10;99.90;;;;;;4203714;28;20646;-74
2022/07/12 00:04:27;;;;;;;2.03;1.30;;;16.10;99.90;;;;;;4197405;28;20262;-74
2022/07/12 00:06:29;;;;;;;1.40;1.23;;;16.10;99.90;;;;;;4209882;28;20690;-74
2022/07/12 00:08:31;;;;;;;2.23;1.37;;;16.00;99.90;;;;;;4201798;28;20274;-74
2022/07/12 00:10:33;;;;;;;1.20;1.10;;;16.00;99.90;;;;;;4201192;28;20274;-74
2022/07/12 00:12:35;;;;;;;1.67;1.57;;;16.00;99.90;;;;;;4210471;28;20220;-75
2022/07/12 00:14:38;;;;;;;1.50;1.33;;;15.90;99.90;;;;;;4180521;28;20220;-74
2022/07/12 00:16:40;;;;;;;1.50;1.37;;;15.90;99.90;;;;;;4209042;28;20920;-75
2022/07/12 00:18:42;;;;;;;1.50;1.40;;;15.80;99.90;;;;;;4212842;28;20315;-74
2022/07/12 00:20:44;;;;;;;2.23;1.60;;;15.80;99.90;;;;;;4212310;28;20723;-74
2022/07/12 00:22:47;;;;;;;1.40;1.30;;;15.80;99.90;;;;;;4208711;28;20680;-75
2022/07/12 00:24:49;;;;;;;1.40;1.30;;;15.80;99.90;;;;;;4207698;28;20223;-75
2022/07/12 00:26:52;;;;;;;1.50;1.40;;;15.70;99.90;;;;;;4210964;28;20202;-74
2022/07/12 00:28:54;;;;;;;1.50;1.37;;;15.70;99.90;;;;;;4212424;28;20293;-73
2022/07/12 00:30:57;;;;;;;1.93;1.70;;;15.70;99.90;;;;;;4214886;28;20318;-74
2022/07/12 00:32:59;;;;;;;1.43;1.33;;;15.70;99.90;;;;;;4212907;28;20242;-75
2022/07/12 00:35:02;;;;;;;1.93;1.50;;;15.70;99.90;;;;;;4212651;28;20411;-74
2022/07/12 00:37:04;;;;;;;1.73;1.50;;;15.60;99.90;;;;;;4203557;28;20198;-73
2022/07/12 00:39:06;;;;;;;2.37;1.70;;;15.60;99.90;;;;;;4210027;28;20249;-74
2022/07/12 00:41:08;;;;;;;1.60;1.50;;;15.60;99.90;;;;;;4214020;28;20203;-74
2022/07/12 00:43:10;;;;;;;1.80;1.60;;;15.60;99.90;;;;;;4205593;28;20241;-75
2022/07/12 00:45:12;;;;;;;1.50;1.40;;;15.60;99.90;;;;;;4205161;28;20745;-74
2022/07/12 00:47:28;;;;;;;2.03;1.70;;;15.60;99.90;;;;;;4206116;28;20599;-74
2022/07/12 00:49:31;;;;;;;1.70;1.60;;;15.50;99.90;;;;;;4212687;28;20202;-75
2022/07/12 00:51:33;;;;;;;1.73;1.60;;;15.50;99.90;;;;;;4207241;28;20226;-74
2022/07/12 00:53:36;;;;;;;2.50;1.67;;;15.50;99.90;;;;;;4212503;28;20298;-74
2022/07/12 00:55:38;;;;;;;1.50;1.40;;;15.50;99.90;;;;;;4208238;28;20222;-74
2022/07/12 00:57:43;;;;;;;1.97;1.80;;;15.50;99.90;;;;;;4213121;28;20726;-77
2022/07/12 00:59:44;;;;;;;1.97;1.60;;;15.50;99.90;;;;;;4205536;28;20271;-74
2022/07/12 01:01:46;;;;;;;2.20;1.87;;;15.50;99.90;;;;;;4209755;28;20201;-74
2022/07/12 01:03:50;;;;;;;1.80;1.70;;;15.40;99.90;;;;;;4206428;28;20707;-74
2022/07/12 01:05:52;;;;;;;2.23;1.67;;;15.40;99.90;;;;;;4214162;28;20718;-75
2022/07/12 01:07:55;;;;;;;3.80;1.93;;;15.40;99.90;;;;;;4212209;28;20275;-74
2022/07/12 01:09:57;;;;;;;2.03;1.83;;;15.40;99.90;;;;;;4204540;28;20210;-74
2022/07/12 01:11:59;;;;;;;2.20;2.00;;;15.30;99.90;;;;;;4207083;28;20696;-75
2022/07/12 01:14:02;;;;;;;2.03;1.83;;;15.30;99.90;;;;;;4201707;28;20230;-74
2022/07/12 01:16:05;;;;;;;2.23;1.90;;;15.30;99.90;;;;;;4208940;28;20209;-72
2022/07/12 01:18:07;;;;;;;2.53;2.10;;;15.30;99.90;;;;;;4211604;28;20725;-73
2022/07/12 01:20:13;;;;;;;2.07;1.87;;;15.20;99.90;;;;;;4208345;28;20694;-73
2022/07/12 01:22:17;;;;;;;2.33;1.90;;;15.20;99.90;;;;;;4201961;28;20313;-74
2022/07/12 01:24:21;;;;;;;2.17;1.97;;;15.20;99.90;;;;;;4213619;28;20231;-72
2022/07/12 01:26:22;;;;;;;2.23;2.00;;;15.10;99.90;;;;;;4208604;28;20219;-75
2022/07/12 01:28:24;;;;;;;2.30;2.00;;;15.10;99.90;;;;;;4204787;28;20212;-76
2022/07/12 01:30:26;;;;;;;2.47;2.03;;;15.10;99.90;;;;;;4212636;28;20304;-73
2022/07/12 01:32:30;;;;;;;2.80;1.93;;;15.10;99.90;;;;;;4207364;28;20245;-73
2022/07/12 01:34:32;;;;;;;2.00;1.80;;;15.10;99.90;;;;;;4208661;28;20242;-73
2022/07/12 01:36:34;;;;;;;2.93;2.17;;;15.10;99.90;;;;;;4202241;28;20811;-73
2022/07/12 01:38:36;;;;;;;2.00;1.80;;;15.00;99.90;;;;;;4206215;28;20220;-72
2022/07/12 01:40:40;;;;;;;1.93;1.73;;;15.00;99.90;;;;;;4205439;28;20931;-74
2022/07/12 01:42:44;;;;;;;2.60;1.93;;;15.00;99.90;;;;;;4208075;28;20213;-74
2022/07/12 01:44:45;;;;;;;2.57;2.20;;;15.00;99.90;;;;;;4207091;28;20724;-73
2022/07/12 01:46:47;;;;;;;2.13;1.93;;;15.00;99.90;;;;;;4203745;28;20211;-73
2022/07/12 01:48:49;;;;;;;2.30;2.10;;;14.90;99.90;;;;;;4205453;28;20275;-74
2022/07/12 01:50:51;;;;;;;2.73;2.30;;;14.90;99.90;;;;;;4202305;28;20239;-73
2022/07/12 01:52:53;;;;;;;2.70;2.27;;;14.80;99.90;;;;;;4204680;28;20333;-74
2022/07/12 01:54:56;;;;;;;2.50;2.13;;;14.80;99.90;;;;;;4204644;28;20300;-74
2022/07/12 01:56:59;;;;;;;2.40;2.13;;;14.80;99.90;;;;;;4207383;28;20233;-74
2022/07/12 01:59:01;;;;;;;3.17;2.17;;;14.80;99.90;;;;;;4205768;28;20304;-75
2022/07/12 02:01:03;;;;;;;2.93;2.20;;;14.80;99.90;;;;;;4206954;28;20720;-74
2022/07/12 02:03:05;;;;;;;2.70;2.30;;;14.70;99.90;;;;;;4204955;28;20205;-75
2022/07/12 02:05:07;;;;;;;2.37;2.17;;;14.70;99.90;;;;;;4202155;28;20231;-75
2022/07/12 02:07:09;;;;;;;2.87;2.23;;;14.70;99.90;;;;;;4208012;28;20257;-75
2022/07/12 02:10:00;;;;;;;2.03;1.83;;;14.70;99.90;;;;;;4203075;28;20206;-75
2022/07/12 02:12:52;;;;;;;2.27;2.07;;;14.70;99.90;;;;;;4204920;28;20658;-74
2022/07/12 02:15:45;;;;;;;3.00;2.37;;;14.70;99.90;;;;;;4202155;28;20237;-74
2022/07/12 02:18:38;;;;;;;3.30;2.63;;;14.60;99.90;;;;;;4207767;28;20247;-75
2022/07/12 02:21:30;;;;;;;2.70;2.10;;;14.60;99.90;;;;;;4206401;28;20674;-74
2022/07/12 02:24:22;;;;;;;2.93;2.37;;;14.60;99.90;;;;;;4210478;28;20274;-75
2022/07/12 02:27:14;;;;;;;3.67;2.43;;;14.60;99.90;;;;;;4198213;28;20648;-74
2022/07/12 02:30:07;;;;;;;2.70;2.20;;;14.60;99.90;;;;;;4203459;28;20219;-75
2022/07/12 02:32:58;;;;;;;2.83;2.37;;;14.60;99.90;;;;;;4204522;28;20233;-75
2022/07/12 02:35:50;;;;;;;3.07;2.37;;;14.50;99.90;;;;;;4203509;28;20324;-74
2022/07/12 02:38:42;;;;;;;2.57;2.30;;;14.50;99.90;;;;;;4205108;28;20201;-74
2022/07/12 02:41:34;;;;;;;2.47;2.23;;;14.50;99.90;;;;;;4206832;28;20216;-75
2022/07/12 02:44:26;;;;;;;3.13;2.33;;;14.50;99.90;;;;;;4204862;28;20296;-75
2022/07/12 02:47:18;;;;;;;2.30;1.90;;;14.50;99.90;;;;;;4207890;28;20216;-75
2022/07/12 02:50:10;;;;;;;2.67;1.80;;;14.40;99.90;;;;;;4199883;28;20233;-75
2022/07/12 02:53:02;;;;;;;3.37;2.30;;;14.40;99.90;;;;;;4199763;28;20232;-74
2022/07/12 02:55:54;;;;;;;2.63;2.20;;;14.40;99.90;;;;;;4202952;28;20235;-74
2022/07/12 02:58:46;;;;;;;3.07;2.40;;;14.40;99.90;;;;;;4204067;28;20244;-74
2022/07/12 03:01:38;;;;;;;3.63;2.17;;;14.40;99.90;;;;;;4205109;28;20235;-74
2022/07/12 03:04:30;;;;;;;2.60;2.10;;;14.30;99.90;;;;;;4203320;28;20210;-75
2022/07/12 03:07:23;;;;;;;2.97;2.30;;;14.30;99.90;;;;;;4204382;28;20228;-74
2022/07/12 03:10:16;;;;;;;3.03;2.47;;;14.30;99.90;;;;;;4201892;28;20233;-75
2022/07/12 03:13:09;;;;;;;3.10;2.40;;;14.30;99.90;;;;;;4196265;28;20287;-75
2022/07/12 03:16:02;;;;;;;3.60;2.20;;;14.20;99.90;;;;;;4199099;28;20291;-75
2022/07/12 03:18:54;;;;;;;3.03;2.70;;;14.20;99.90;;;;;;4200474;28;20300;-75
2022/07/12 03:21:46;;;;;;;2.67;2.10;;;14.20;99.90;;;;;;4198816;28;20201;-75
2022/07/12 04:42:14;;;;;;;4.47;2.57;;;13.90;99.90;;;;;;4199037;28;20308;-73
2022/07/12 04:46:19;;;;;;;3.10;2.53;;;13.90;99.90;;;;;;4190812;28;20241;-77
2022/07/12 04:48:21;;;;;;;4.23;2.80;;;14.00;99.90;;;;;;4192320;28;20651;-77
2022/07/12 04:50:23;;;;;;;3.57;2.73;;;14.00;99.90;;;;;;4173412;28;20199;-77
2022/07/12 04:52:25;;;;;;;3.20;2.50;;;14.00;99.90;;;;;;4195411;28;20626;-77
2022/07/12 04:54:27;;;;;;;3.37;2.50;;;14.00;99.90;;;;;;4195318;28;20257;-77
2022/07/12 04:56:29;;;;;;;3.63;2.63;;;14.00;99.90;;;;;;4203356;28;20669;-77
2022/07/12 04:58:32;;;;;;;3.43;2.60;;;14.00;99.90;;;;;;4207585;28;20280;-77
2022/07/12 05:00:34;;;;;;;4.97;2.73;;;14.00;99.90;;;;;;4185687;28;20210;-77
2022/07/12 05:02:36;;;;;;;3.50;2.60;;;14.10;99.90;;;;;;4209186;28;20216;-78
2022/07/12 05:04:38;;;;;;;4.07;2.67;;;14.10;99.90;;;;;;4191390;28;20317;-77
2022/07/12 05:06:41;;;;;;;4.23;2.70;;;14.10;99.90;;;;;;4206210;28;20255;-79
2022/07/12 05:08:42;;;;;;;4.67;2.90;;;14.10;99.90;;;;;;4209756;28;20235;-79
2022/07/12 05:10:44;;;;;;;4.53;3.00;;;14.20;99.90;;;;;;4214257;28;20224;-79
2022/07/12 05:12:46;;;;;;;5.00;3.07;;;14.20;99.90;;;;;;4207543;28;20221;-79
2022/07/12 05:14:49;;;;;;;5.30;3.53;;;14.20;99.90;;;;;;4210963;28;20296;-79
2022/07/12 05:16:52;;;;;;;4.23;3.30;;;14.30;99.90;;;;;;4208152;28;20254;-77
2022/07/12 05:18:53;;;;;;;4.80;3.10;;;14.30;99.90;;;;;;4207800;28;20217;-77
2022/07/12 05:20:55;;;;;;;5.03;3.33;;;14.30;99.90;;;;;;4208937;28;20245;-76
2022/07/12 05:22:57;;;;;;;3.73;2.97;;;14.30;99.90;;;;;;4207365;28;20289;-75
2022/07/12 05:24:59;;;;;;;5.60;3.10;;;14.40;99.90;;;;;;4191715;28;20239;-76
2022/07/12 05:27:01;;;;;;;6.67;3.03;;;14.40;99.90;;;;;;4190136;28;20260;-75
2022/07/12 05:29:03;;;;;;;4.90;3.27;;;14.40;99.90;;;;;;4207977;28;20198;-76
2022/07/12 05:31:09;;;;;;;4.13;2.83;;;14.50;99.90;;;;;;4209638;28;20300;-75
2022/07/12 05:33:12;;;;;;;4.40;3.40;;;14.50;99.90;;;;;;4206955;28;20521;-76
2022/07/12 05:35:13;;;;;;;5.23;3.63;;;14.50;99.90;;;;;;4190001;28;20317;-76
2022/07/12 05:37:15;;;;;;;4.10;3.13;;;14.40;99.90;;;;;;4194855;28;20275;-76
2022/07/12 05:39:17;;;;;;;7.63;3.80;;;14.60;99.90;;;;;;4206842;28;20209;-77
2022/07/12 05:41:19;;;;;;;4.53;3.40;;;14.60;99.90;;;;;;4211022;28;20250;-76
2022/07/12 05:43:21;;;;;;;6.33;3.30;;;14.60;99.90;;;;;;4210309;28;20232;-76
2022/07/12 05:45:23;;;;;;;4.70;3.20;;;14.70;99.90;;;;;;4192766;28;20715;-76
2022/07/12 05:47:28;;;;;;;4.57;3.07;;;14.70;99.90;;;;;;4206474;28;20730;-77
2022/07/12 05:49:30;;;;;;;3.87;3.00;;;14.70;99.90;;;;;;4208103;28;20209;-76
2022/07/12 05:53:52;;;;;;;4.40;3.23;;;14.80;99.90;;;;;;4189990;28;20209;-77
2022/07/12 05:55:55;;;;;;;4.10;3.00;;;14.80;99.90;;;;;;4204114;28;20643;-75
2022/07/12 05:57:57;;;;;;;4.10;3.13;;;14.80;99.90;;;;;;4209072;28;20210;-73
2022/07/12 05:59:59;;;;;;;4.43;2.80;;;14.90;99.90;;;;;;4187688;28;20383;-74
2022/07/12 06:02:01;;;;;;;3.73;2.97;;;14.90;99.90;;;;;;4202396;28;20657;-74
2022/07/12 06:04:05;;;;;;;3.63;2.70;;;15.00;99.90;;;;;;4185635;28;20218;-75
2022/07/12 06:06:07;;;;;;;4.27;2.83;;;15.00;99.90;;;;;;4202351;28;20239;-75
2022/07/12 06:08:09;;;;;;;5.00;3.20;;;15.00;99.90;;;;;;4205442;28;20233;-75
2022/07/12 06:10:11;;;;;;;4.53;3.00;;;15.10;99.90;;;;;;4199722;28;20414;-75
2022/07/12 06:12:13;;;;;;;6.67;3.30;;;15.10;99.90;;;;;;4204062;28;20313;-75
2022/07/12 06:14:15;;;;;;;3.93;3.10;;;15.20;99.90;;;;;;4201560;28;20226;-75
2022/07/12 06:16:17;;;;;;;4.87;2.93;;;15.20;99.90;;;;;;4202371;28;20707;-76
2022/07/12 06:18:19;;;;;;;4.20;2.83;;;15.20;99.90;;;;;;4201072;28;20589;-77
2022/07/12 06:20:22;;;;;;;4.17;2.87;;;15.20;99.90;;;;;;4182654;28;20594;-78
2022/07/12 06:22:24;;;;;;;3.93;2.80;;;15.30;99.90;;;;;;4180117;28;20652;-76
2022/07/12 06:24:26;;;;;;;4.67;2.93;;;15.30;99.90;;;;;;4205028;28;20252;-76
2022/07/12 06:26:28;;;;;;;5.53;3.37;;;15.40;99.90;;;;;;4202491;28;20851;-78
2022/07/12 06:28:30;;;;;;;4.17;2.93;;;15.40;99.90;;;;;;4199183;28;20657;-78
2022/07/12 06:30:35;;;;;;;4.50;3.03;;;15.40;99.90;;;;;;4203997;28;20198;-77
2022/07/12 06:32:37;;;;;;;5.23;2.93;;;15.50;99.90;;;;;;4199590;28;20316;-78
2022/07/12 06:34:39;;;;;;;4.17;2.40;;;15.50;99.90;;;;;;4186656;28;20240;-78
2022/07/12 06:36:43;;;;;;;3.93;2.70;;;15.60;99.90;;;;;;4202446;28;20215;-78
2022/07/12 06:38:45;;;;;;;4.87;2.50;;;15.70;99.90;;;;;;4203857;28;20207;-77
2022/07/12 06:40:50;;;;;;;4.93;2.83;;;15.70;99.90;;;;;;4202655;28;20204;-77
2022/07/12 06:42:52;;;;;;;5.83;3.47;;;15.70;99.90;;;;;;4198575;28;20203;-75
2022/07/12 06:44:54;;;;;;;3.33;2.47;;;15.70;99.90;;;;;;4195427;28;20254;-75
2022/07/12 06:46:56;;;;;;;3.33;2.70;;;15.80;99.90;;;;;;4182051;28;20897;-76
2022/07/12 06:48:58;;;;;;;3.20;2.47;;;15.90;99.90;;;;;;4202028;28;20308;-75
2022/07/12 06:51:00;;;;;;;3.07;2.37;;;15.90;99.90;;;;;;4202234;28;20624;-76
2022/07/12 06:53:04;;;;;;;3.10;2.80;;;15.90;99.90;;;;;;4203033;28;20226;-75
2022/07/12 06:55:07;;;;;;;3.90;2.67;;;16.00;99.90;;;;;;4200402;28;20663;-77
2022/07/12 06:57:09;;;;;;;4.17;2.20;;;16.00;99.90;;;;;;4202518;28;20296;-76
2022/07/12 06:59:11;;;;;;;3.07;2.27;;;16.10;99.90;;;;;;4201179;28;20204;-75
2022/07/12 07:01:13;;;;;;;4.00;2.43;;;16.20;99.90;;;;;;4202326;28;20204;-76
2022/07/12 07:03:14;;;;;;;2.97;2.27;;;16.20;99.90;;;;;;4196652;28;20206;-75
2022/07/12 07:05:17;;;;;;;4.23;2.57;;;16.30;99.90;;;;;;4202243;28;20230;-78
2022/07/12 07:07:19;;;;;;;3.80;2.70;;;16.30;99.90;;;;;;4184249;28;20236;-77
2022/07/12 07:09:22;;;;;;;5.43;2.07;;;16.40;99.90;;;;;;4200742;28;20300;-76
2022/07/12 07:11:25;;;;;;;3.97;2.37;;;16.50;99.90;;;;;;4205306;28;20212;-78
2022/07/12 07:13:27;;;;;;;2.80;2.10;;;16.50;99.90;;;;;;4198616;28;20313;-79
2022/07/12 07:15:29;;;;;;;3.23;2.03;;;16.60;99.90;;;;;;4193155;28;20339;-78
2022/07/12 07:17:31;;;;;;;3.93;1.93;;;16.60;99.90;;;;;;4175975;28;20278;-79
2022/07/12 07:19:33;;;;;;;2.00;1.77;;;16.70;99.90;;;;;;4198843;28;20569;-79
2022/07/12 07:21:35;;;;;;;3.13;1.90;;;16.70;99.90;;;;;;4197079;28;20288;-77
2022/07/12 07:23:37;;;;;;;3.20;1.93;;;16.70;99.90;;;;;;4204717;28;20288;-77
2022/07/12 07:25:40;;;;;;;3.53;1.90;;;16.80;99.90;;;;;;4202166;28;20259;-77
2022/07/12 07:27:44;;;;;;;5.03;2.10;;;16.80;99.90;;;;;;4201232;28;20209;-77
2022/07/12 07:32:09;;;;;;;2.40;1.80;;;16.90;99.90;;;;;;4204384;28;20480;-78
2022/07/12 07:34:11;;;;;;;2.00;1.80;;;17.00;99.90;;;;;;4204040;28;20511;-78
2022/07/12 07:36:14;;;;;;;4.70;2.00;;;17.00;99.90;;;;;;4203277;28;20696;-77
2022/07/12 07:38:17;;;;;;;5.83;2.60;;;17.10;99.90;;;;;;4200093;28;20681;-79
2022/07/12 07:40:25;;;;;;;5.37;2.70;;;17.10;99.90;;;;;;4197852;28;20208;-79
2022/07/12 07:42:29;;;;;;;4.60;2.67;;;17.20;99.90;;;;;;4201480;28;20213;-79
2022/07/12 07:44:31;;;;;;;3.73;2.30;;;17.30;99.90;;;;;;4186760;28;20252;-79
2022/07/12 07:46:33;;;;;;;4.17;2.00;;;17.40;99.90;;;;;;4199267;28;20661;-78
2022/07/12 07:48:34;;;;;;;3.57;2.07;;;17.40;99.90;;;;;;4191579;28;20690;-78
2022/07/12 07:50:36;;;;;;;2.53;1.70;;;17.50;99.90;;;;;;4207541;28;20259;-78
2022/07/12 07:52:38;;;;;;;4.10;2.00;;;17.50;99.90;;;;;;4200354;28;20322;-78
2022/07/12 07:54:40;;;;;;;2.83;1.80;;;17.60;99.90;;;;;;4210542;28;20263;-78
2022/07/12 07:56:42;;;;;;;2.17;1.80;;;17.60;99.90;;;;;;4206474;28;20251;-78
2022/07/12 07:58:45;;;;;;;5.17;2.10;;;17.60;99.90;;;;;;4207734;28;20690;-78
2022/07/12 08:00:47;;;;;;;3.77;2.30;;;17.70;99.90;;;;;;4188421;28;20579;-78
2022/07/12 08:02:49;;;;;;;4.87;2.17;;;17.80;99.90;;;;;;4207652;28;20212;-79
2022/07/12 08:04:54;;;;;;;3.13;1.70;;;17.80;99.90;;;;;;4207329;28;20232;-78
2022/07/12 08:06:58;;;;;;;2.47;1.60;;;17.90;99.90;;;;;;4205838;28;20696;-78
2022/07/12 08:09:00;;;;;;;2.23;1.67;;;17.90;99.90;;;;;;4199289;28;20202;-78
2022/07/12 08:11:01;;;;;;;3.97;1.70;;;18.00;99.90;;;;;;4202743;28;20293;-78
2022/07/12 08:13:04;;;;;;;3.50;1.90;;;18.00;99.90;;;;;;4202793;28;20224;-78
2022/07/12 08:15:09;;;;;;;2.53;1.60;;;18.00;99.90;;;;;;4205606;28;20260;-77
2022/07/12 08:17:15;;;;;;;2.03;1.50;;;18.10;99.90;;;;;;4200799;28;20741;-77
2022/07/12 08:19:20;;;;;;;2.63;1.60;;;18.10;99.90;;;;;;4205080;28;20709;-77
2022/07/12 08:21:22;;;;;;;1.80;1.30;;;18.20;99.90;;;;;;4206620;28;20918;-78
2022/07/12 08:23:24;;;;;;;5.63;1.30;;;18.30;99.90;;;;;;4187041;28;20209;-77
2022/07/12 08:25:26;;;;;;;2.43;1.40;;;18.30;99.90;;;;;;4206552;28;20229;-78
2022/07/12 08:27:28;;;;;;;3.37;1.50;;;18.40;99.90;;;;;;4203172;28;20292;-78
2022/07/12 08:29:30;;;;;;;1.90;1.50;;;18.40;99.90;;;;;;4202143;28;20233;-77
2022/07/12 08:31:34;;;;;;;1.60;0.90;;;18.50;99.90;;;;;;4207057;28;20752;-78
2022/07/12 08:33:36;;;;;;;2.17;1.20;;;18.50;99.90;;;;;;4200382;28;20314;-78
2022/07/12 08:35:38;;;;;;;2.20;1.20;;;18.60;99.90;;;;;;4203426;28;20660;-77
2022/07/12 08:37:40;;;;;;;1.43;1.30;;;18.60;99.90;;;;;;4204765;28;20238;-78
2022/07/12 08:39:42;;;;;;;2.33;1.30;;;18.70;99.90;;;;;;4206793;28;20202;-77
2022/07/12 08:41:43;;;;;;;1.80;1.30;;;18.70;99.90;;;;;;4190746;28;20235;-78
2022/07/12 08:43:45;;;;;;;1.87;1.27;;;18.80;99.90;;;;;;4207578;28;20223;-78
2022/07/12 08:45:47;;;;;;;3.27;1.40;;;18.90;99.90;;;;;;4207344;28;20268;-78
2022/07/12 08:47:50;;;;;;;2.57;1.20;;;19.00;99.90;;;;;;4192558;28;20197;-78
2022/07/12 08:50:17;;;;;;;2.63;1.50;;;19.00;99.90;;;;;;4214906;28;20313;-77
2022/07/12 08:52:26;;;;;;;2.30;1.40;;;19.20;99.90;;;;;;4208977;28;20217;-78
2022/07/12 08:54:40;;;;;;;1.93;1.23;;;19.30;99.90;;;;;;4217117;28;20241;-78
2022/07/12 08:56:43;;;;;;;1.47;1.13;;;19.40;99.90;;;;;;4204291;28;20237;-78
2022/07/12 08:58:45;;;;;;;2.07;1.47;;;19.40;99.90;;;;;;4191246;28;20327;-78
2022/07/12 09:00:47;;;;;;;3.03;1.30;;;19.50;99.90;;;;;;4186433;28;20243;-78
2022/07/12 09:02:51;;;;;;;4.47;1.40;;;19.60;99.90;;;;;;4202814;28;20695;-78
2022/07/12 09:05:07;;;;;;;2.60;1.17;;;19.70;99.60;;;;;;4201402;28;20260;-78
2022/07/12 09:07:15;;;;;;;2.03;1.30;;;19.80;99.90;;;;;;4184748;28;20686;-78
2022/07/12 09:09:27;;;;;;;3.53;1.43;;;19.90;99.90;;;;;;4203846;28;20208;-78
2022/07/12 09:11:29;;;;;;;1.67;1.10;;;20.00;99.90;;;;;;4202782;28;20213;-78
2022/07/12 09:13:56;;;;;;;2.57;1.00;;;20.10;99.70;;;;;;4206036;28;20931;-78
2022/07/12 09:16:13;;;;;;;2.53;1.00;;;20.20;95.90;;;;;;4192776;28;20649;-78
2022/07/12 09:18:18;;;;;;;2.77;1.07;;;20.30;94.30;;;;;;4205553;28;20204;-78
2022/07/12 09:20:19;;;;;;;3.03;1.33;;;20.30;94.50;;;;;;4204713;28;20212;-78
2022/07/12 09:22:21;;;;;;;2.30;1.10;;;20.30;95.10;;;;;;4200576;28;20209;-78
2022/07/12 09:24:26;;;;;;;1.27;1.00;;;20.40;93.70;;;;;;4203860;28;20315;-78
2022/07/12 09:26:32;;;;;;;1.03;0.90;;;20.50;94.30;;;;;;4200923;28;20241;-78
2022/07/12 09:28:34;;;;;;;1.57;1.17;;;20.50;94.30;;;;;;4202452;28;20217;-75
2022/07/12 09:30:38;;;;;;;2.77;1.00;;;20.60;93.10;;;;;;4202612;28;20295;-76
2022/07/12 09:37:40;;;;;;;2.63;0.90;;;20.80;86.10;;;;;;4183380;28;20312;-78
2022/07/12 09:39:42;;;;;;;2.17;1.10;;;20.90;90.00;;;;;;4202016;28;20583;-76
2022/07/12 09:41:45;;;;;;;2.73;0.93;;;21.00;83.60;;;;;;4202264;28;20241;-77
2022/07/12 09:43:48;;;;;;;1.57;1.10;;;21.10;78.80;;;;;;4184882;28;20239;-76
2022/07/12 09:45:50;;;;;;;1.57;1.00;;;21.20;72.60;;;;;;4204008;28;20578;-76
2022/07/12 09:47:53;;;;;;;1.60;0.97;;;21.20;71.20;;;;;;4190830;28;20313;-76
2022/07/12 09:49:56;;;;;;;1.30;0.90;;;21.20;64.30;;;;;;4202085;28;20204;-77
2022/07/12 09:52:01;;;;;;;2.13;0.97;;;21.30;67.80;;;;;;4200517;28;20201;-76
2022/07/12 09:54:04;;;;;;;1.53;0.93;;;21.30;69.80;;;;;;4176612;28;20226;-76
2022/07/12 09:56:08;;;;;;;1.47;0.90;;;21.40;69.60;;;;;;4202769;28;20255;-76
2022/07/12 09:58:11;;;;;;;1.23;0.87;;;21.50;69.30;;;;;;4201142;28;20240;-76
2022/07/12 10:00:14;;;;;;;1.43;1.07;;;21.60;69.30;;;;;;4197269;28;20289;-75
2022/07/12 10:02:16;;;;;;;2.20;1.10;;;21.70;68.20;;;;;;4202097;28;20210;-77
2022/07/12 10:04:22;;;;;;;2.17;1.00;;;21.80;66.40;;;;;;4201871;28;20321;-77
2022/07/12 10:06:27;;;;;;;2.00;1.03;;;21.90;67.00;;;;;;4200097;28;20212;-78
2022/07/12 10:08:31;;;;;;;1.20;1.00;;;22.00;64.90;;;;;;4184582;28;20280;-77
2022/07/12 10:10:36;;;;;;;2.27;1.10;;;22.10;57.90;;;;;;4199502;28;20204;-77
2022/07/12 10:12:38;;;;;;;1.33;0.80;;;22.10;57.40;;;;;;4198366;28;20202;-78
2022/07/12 10:14:42;;;;;;;1.33;1.00;;;22.20;58.80;;;;;;4202331;28;20249;-77
2022/07/12 10:16:45;;;;;;;1.97;1.10;;;22.30;59.30;;;;;;4200271;28;20209;-76
2022/07/12 10:18:47;;;;;;;0.70;0.70;;;22.50;56.10;;;;;;4207714;28;20655;-75
2022/07/12 10:20:50;;;;;;;1.37;1.00;;;22.50;56.70;;;;;;4177910;28;20214;-75
2022/07/12 10:22:53;;;;;;;1.33;0.90;;;22.60;57.10;;;;;;4182352;28;20783;-76
2022/07/12 10:24:57;;;;;;;2.07;1.00;;;22.70;56.90;;;;;;4201701;28;20234;-77
2022/07/12 10:26:59;;;;;;;1.00;0.90;;;22.80;52.50;;;;;;4199110;28;20581;-76
2022/07/12 10:29:03;;;;;;;1.90;1.20;;;22.80;51.70;;;;;;4190834;28;20302;-76
2022/07/12 10:31:07;;;;;;;1.93;0.70;;;22.90;51.30;;;;;;4184434;28;20680;-76
2022/07/12 10:33:16;;;;;;;3.30;0.80;;;22.90;48.90;;;;;;4201974;28;20793;-75
2022/07/12 10:35:21;;;;;;;1.83;0.80;;;23.00;50.00;;;;;;4181215;28;20390;-76
2022/07/12 10:37:23;;;;;;;1.70;0.83;;;23.10;49.30;;;;;;4203472;28;20253;-76
2022/07/12 10:39:26;;;;;;;1.40;0.83;;;23.30;49.20;;;;;;4204905;28;20856;-77
2022/07/12 10:41:30;;;;;;;2.30;0.77;;;23.40;49.40;;;;;;4206250;28;20203;-75
2022/07/12 10:45:51;;;;;;;3.07;0.93;;;23.60;48.40;;;;;;4202303;28;20218;-78
2022/07/12 10:47:57;;;;;;;2.40;0.80;;;23.70;48.30;;;;;;4194158;28;20248;-78
2022/07/12 10:49:59;;;;;;;1.10;0.60;;;23.80;47.30;;;;;;4196308;28;20208;-77
2022/07/12 10:52:31;;;;;;;1.20;0.90;;;23.80;47.30;;;;;;4198574;28;20644;-77
2022/07/12 10:54:33;;;;;;;1.10;0.70;;;23.90;46.90;;;;;;4197197;28;20480;-77
2022/07/12 10:56:38;;;;;;;3.23;0.90;;;24.00;46.90;;;;;;4196683;28;20648;-77
2022/07/12 10:58:42;;;;;;;0.80;0.60;;;24.10;46.50;;;;;;4202594;28;20236;-78
2022/07/12 11:00:45;;;;;;;0.70;0.60;;;24.20;45.80;;;;;;4203229;28;20237;-77
2022/07/12 11:02:47;;;;;;;1.63;0.80;;;24.30;44.60;;;;;;4201743;28;20205;-78
2022/07/12 11:04:49;;;;;;;1.47;0.80;;;24.30;44.40;;;;;;4200952;28;20315;-77
2022/07/12 11:06:55;;;;;;;0.83;0.70;;;24.30;44.40;;;;;;4204314;28;20653;-77
2022/07/12 11:09:00;;;;;;;0.63;0.60;;;24.40;44.20;;;;;;4201549;28;20240;-77
2022/07/12 11:11:02;;;;;;;0.67;0.63;;;24.50;43.70;;;;;;4198041;28;20328;-77
2022/07/12 11:13:24;;;;;;;0.63;0.60;;;24.60;44.20;;;;;;4184885;28;20300;-77
2022/07/12 11:15:26;;;;;;;2.87;0.70;;;24.70;43.70;;;;;;4196357;28;20213;-77
2022/07/12 11:17:28;;;;;;;1.87;0.77;;;24.80;42.90;;;;;;4201863;28;20289;-77
2022/07/12 11:19:33;;;;;;;2.77;0.80;;;24.80;40.90;;;;;;4188396;28;20297;-77
2022/07/12 11:21:35;;;;;;;1.17;0.50;;;24.90;41.30;;;;;;4204423;28;20205;-77
2022/07/12 11:23:40;;;;;;;1.47;0.60;;;25.00;41.30;;;;;;4206406;28;21044;-77
2022/07/12 11:25:42;;;;;;;0.97;0.63;;;25.10;41.50;;;;;;4205166;28;20705;-78
2022/07/12 11:27:46;;;;;;;1.87;0.80;;;25.20;40.60;;;;;;4202192;28;20292;-77
2022/07/12 11:29:59;;;;;;;1.73;0.90;;;25.20;39.90;;;;;;4206101;28;20335;-77
2022/07/12 11:32:03;;;;;;;2.00;0.67;;;25.30;39.30;;;;;;4184451;28;20714;-78
2022/07/12 11:34:05;;;;;;;0.50;0.50;;;25.40;38.50;;;;;;4206010;28;20222;-77
2022/07/12 11:36:08;;;;;;;0.80;0.53;;;25.50;39.10;;;;;;4200965;28;20641;-77
2022/07/12 11:38:10;;;;;;;0.70;0.50;;;25.60;39.50;;;;;;4203402;28;20212;-77
2022/07/12 11:40:13;;;;;;;0.90;0.63;;;25.80;38.80;;;;;;4207578;28;20304;-77
2022/07/12 11:42:16;;;;;;;1.17;0.60;;;25.90;38.00;;;;;;4198561;28;20284;-77
2022/07/12 11:44:20;;;;;;;0.70;0.50;;;26.10;37.70;;;;;;4187977;28;20218;-77
2022/07/12 11:46:23;;;;;;;2.67;0.70;;;26.10;37.00;;;;;;4201230;28;20241;-77
2022/07/12 11:48:26;;;;;;;0.63;0.50;;;26.30;37.30;;;;;;4199654;28;20291;-77
2022/07/12 11:50:30;;;;;;;1.30;0.60;;;26.40;36.40;;;;;;4206702;28;20303;-77
2022/07/12 11:52:31;;;;;;;2.10;0.60;;;26.60;36.60;;;;;;4207079;28;20228;-78
2022/07/12 11:54:34;;;;;;;2.40;0.67;;;26.80;37.00;;;;;;4202263;28;20283;-77
2022/07/12 11:56:36;;;;;;;1.03;0.50;;;27.00;36.00;;;;;;4203287;28;20581;-78
2022/07/12 11:58:38;;;;;;;1.23;0.63;;;27.10;36.00;;;;;;4205022;28;20632;-78
2022/07/12 12:00:40;;;;;;;0.60;0.60;;;27.30;35.80;;;;;;4198529;28;20248;-78
2022/07/12 12:02:44;;;;;;;1.00;0.70;;;27.50;35.40;;;;;;4199905;28;20756;-78
2022/07/12 12:04:47;;;;;;;1.00;0.80;;;27.70;35.50;;;;;;4199203;28;20244;-77
2022/07/12 12:06:49;;;;;;;1.13;0.70;;;28.00;35.00;;;;;;4201561;28;20628;-77
2022/07/12 12:08:51;;;;;;;1.03;0.60;;;28.30;34.50;;;;;;4199847;28;20297;-77
2022/07/12 12:10:57;;;;;;;0.60;0.60;;;28.60;33.60;;;;;;4200619;28;20213;-77
2022/07/12 12:13:00;;;;;;;1.43;0.60;;;28.70;33.30;;;;;;4202423;28;20209;-78
2022/07/12 12:15:04;;;;;;;2.72;0.60;;;28.90;33.30;;;;;;4203807;28;20325;-77
2022/07/12 12:17:13;;;;;;;1.13;0.50;;;29.20;33.30;;;;;;4207461;28;20267;-78
2022/07/12 12:19:16;;;;;;;1.73;0.60;;;29.50;32.30;;;;;;4208158;28;20213;-77
2022/07/12 12:21:27;;;;;;;3.65;0.60;;;29.70;31.60;;;;;;4208323;28;20596;-77
2022/07/12 12:23:29;;;;;;;1.30;0.55;;;30.00;31.50;;;;;;4207319;28;20213;-77
2022/07/12 12:25:32;;;;;;;1.30;0.82;;;30.30;30.90;;;;;;4205848;28;20247;-77
2022/07/12 12:27:40;;;;;;;0.50;0.50;;;30.60;30.30;;;;;;4202101;28;20779;-77
2022/07/12 12:29:42;;;;;;;1.48;0.70;;;30.90;29.70;;;;;;4199802;28;20312;-77
2022/07/12 12:31:57;;;;;;;1.10;0.45;;;31.00;28.90;;;;;;4198914;28;20296;-77
2022/07/12 12:34:00;;;;;;;2.00;0.63;;;31.30;29.10;;;;;;4197512;28;20222;-77
2022/07/12 12:36:14;;;;;;;0.30;0.30;;;31.40;28.50;;;;;;4202154;28;20659;-77